<?xml version="1.0" encoding="UTF-8" standalone="no" ?>
<gpx xmlns="http://www.topografix.com/GPX/1/1" xmlns:xsi="http://www.w3.org/2001/XMLSchema-instance" xsi:schemaLocation="http://www.topografix.com/GPX/1/1 http://www.topografix.com/GPX/1/1/gpx.xsd" version="1.1" creator="VisuGPX - https://www.visugpx.com">
  <metadata>
    <name>St Maurin 10 km</name>
  </metadata>
  <trk>
    <name><![CDATA[2022 07 21 St Maurin Pierre_]]></name>
    <extensions>
      <line xmlns="http://www.topografix.com/GPX/gpx_style/0/2">
        <color>0000FF</color>
        <width>4</width>
      </line>
    </extensions>
    <trkseg>
      <trkpt lat="44.20794" lon="0.89288">
        <ele>95.9</ele>
        <time>2022-07-21T06:35:41.062Z</time>
      </trkpt>
      <trkpt lat="44.20794" lon="0.89272">
        <ele>97.1</ele>
        <time>2022-07-21T06:35:53.062Z</time>
      </trkpt>
      <trkpt lat="44.20793" lon="0.89259">
        <ele>98</ele>
        <time>2022-07-21T06:39:15.134Z</time>
      </trkpt>
      <trkpt lat="44.20793" lon="0.89252">
        <ele>98.5</ele>
        <time>2022-07-21T06:39:44.150Z</time>
      </trkpt>
      <trkpt lat="44.20794" lon="0.89123">
        <ele>108.2</ele>
        <time>2022-07-21T06:42:34.190Z</time>
      </trkpt>
      <trkpt lat="44.20793" lon="0.89037">
        <ele>117.4</ele>
        <time>2022-07-21T06:42:42.190Z</time>
      </trkpt>
      <trkpt lat="44.2081" lon="0.88964">
        <ele>127.1</ele>
        <time>2022-07-21T06:44:30.190Z</time>
      </trkpt>
      <trkpt lat="44.20833" lon="0.88871">
        <ele>142.4</ele>
        <time>2022-07-21T06:45:18.190Z</time>
      </trkpt>
      <trkpt lat="44.20879" lon="0.88798">
        <ele>151.5</ele>
      </trkpt>
      <trkpt lat="44.20922" lon="0.88749">
        <ele>158.9</ele>
      </trkpt>
      <trkpt lat="44.2096" lon="0.8873">
        <ele>158.5</ele>
      </trkpt>
      <trkpt lat="44.21036" lon="0.88723">
        <ele>158.3</ele>
      </trkpt>
      <trkpt lat="44.2109" lon="0.88685">
        <ele>161</ele>
      </trkpt>
      <trkpt lat="44.21182" lon="0.88665">
        <ele>165.2</ele>
      </trkpt>
      <trkpt lat="44.2115" lon="0.88545">
        <ele>162</ele>
      </trkpt>
      <trkpt lat="44.21117" lon="0.88509">
        <ele>159.1</ele>
      </trkpt>
      <trkpt lat="44.20974" lon="0.88485">
        <ele>142.9</ele>
      </trkpt>
      <trkpt lat="44.20907" lon="0.88526">
        <ele>137.3</ele>
      </trkpt>
      <trkpt lat="44.20831" lon="0.88569">
        <ele>122.9</ele>
      </trkpt>
      <trkpt lat="44.20792" lon="0.88592">
        <ele>119.9</ele>
      </trkpt>
      <trkpt lat="44.20814" lon="0.88513">
        <ele>114.1</ele>
      </trkpt>
      <trkpt lat="44.2084" lon="0.88482">
        <ele>114.6</ele>
      </trkpt>
      <trkpt lat="44.20774" lon="0.88458">
        <ele>106.2</ele>
      </trkpt>
      <trkpt lat="44.20713" lon="0.884">
        <ele>107.1</ele>
      </trkpt>
      <trkpt lat="44.20709" lon="0.88376">
        <ele>109.9</ele>
      </trkpt>
      <trkpt lat="44.20697" lon="0.88343">
        <ele>114.3</ele>
        <time>2022-07-21T06:52:26.190Z</time>
      </trkpt>
      <trkpt lat="44.20645" lon="0.88396">
        <ele>112</ele>
      </trkpt>
      <trkpt lat="44.20604" lon="0.88457">
        <ele>111.9</ele>
        <time>2022-07-21T06:53:10.190Z</time>
      </trkpt>
      <trkpt lat="44.20515" lon="0.88603">
        <ele>109.8</ele>
        <time>2022-07-21T06:53:26.190Z</time>
      </trkpt>
      <trkpt lat="44.2047" lon="0.88682">
        <ele>109</ele>
        <time>2022-07-21T06:53:42.190Z</time>
      </trkpt>
      <trkpt lat="44.20428" lon="0.88769">
        <ele>110.1</ele>
        <time>2022-07-21T06:54:06.190Z</time>
      </trkpt>
      <trkpt lat="44.20415" lon="0.88672">
        <ele>117</ele>
      </trkpt>
      <trkpt lat="44.20391" lon="0.88616">
        <ele>127.3</ele>
      </trkpt>
      <trkpt lat="44.20374" lon="0.88542">
        <ele>140.4</ele>
      </trkpt>
      <trkpt lat="44.20366" lon="0.88465">
        <ele>149.3</ele>
      </trkpt>
      <trkpt lat="44.20363" lon="0.88381">
        <ele>150.7</ele>
      </trkpt>
      <trkpt lat="44.20365" lon="0.88283">
        <ele>148.2</ele>
      </trkpt>
      <trkpt lat="44.20368" lon="0.88222">
        <ele>146.8</ele>
        <time>2022-07-21T07:45:06.182Z</time>
      </trkpt>
      <trkpt lat="44.20358" lon="0.88192">
        <ele>143.6</ele>
      </trkpt>
      <trkpt lat="44.20343" lon="0.88221">
        <ele>141.5</ele>
        <time>2022-07-21T07:50:14.226Z</time>
      </trkpt>
      <trkpt lat="44.20323" lon="0.88251">
        <ele>138.7</ele>
        <time>2022-07-21T07:53:35.242Z</time>
      </trkpt>
      <trkpt lat="44.2031" lon="0.88267">
        <ele>136.7</ele>
        <time>2022-07-21T07:53:51.242Z</time>
      </trkpt>
      <trkpt lat="44.2028" lon="0.88318">
        <ele>133.3</ele>
        <time>2022-07-21T07:54:39.242Z</time>
      </trkpt>
      <trkpt lat="44.20268" lon="0.88331">
        <ele>131.3</ele>
        <time>2022-07-21T07:54:51.242Z</time>
      </trkpt>
      <trkpt lat="44.20238" lon="0.88374">
        <ele>128.9</ele>
        <time>2022-07-21T07:55:23.242Z</time>
      </trkpt>
      <trkpt lat="44.20183" lon="0.88444">
        <ele>125.4</ele>
        <time>2022-07-21T07:56:27.242Z</time>
      </trkpt>
      <trkpt lat="44.20103" lon="0.88506">
        <ele>120.9</ele>
        <time>2022-07-21T07:57:39.242Z</time>
      </trkpt>
      <trkpt lat="44.20071" lon="0.88537">
        <ele>120.8</ele>
        <time>2022-07-21T07:58:11.242Z</time>
      </trkpt>
      <trkpt lat="44.20018" lon="0.88599">
        <ele>121.9</ele>
        <time>2022-07-21T07:59:07.242Z</time>
      </trkpt>
      <trkpt lat="44.2" lon="0.88613">
        <ele>120.3</ele>
        <time>2022-07-21T07:59:23.242Z</time>
      </trkpt>
      <trkpt lat="44.19981" lon="0.88621">
        <ele>118.1</ele>
        <time>2022-07-21T07:59:39.242Z</time>
      </trkpt>
      <trkpt lat="44.19904" lon="0.88642">
        <ele>108.6</ele>
        <time>2022-07-21T08:00:43.242Z</time>
      </trkpt>
      <trkpt lat="44.19884" lon="0.88642">
        <ele>106</ele>
        <time>2022-07-21T08:00:59.242Z</time>
      </trkpt>
      <trkpt lat="44.19858" lon="0.88631">
        <ele>103</ele>
        <time>2022-07-21T08:01:23.242Z</time>
      </trkpt>
      <trkpt lat="44.19838" lon="0.88627">
        <ele>100.5</ele>
        <time>2022-07-21T08:01:39.242Z</time>
      </trkpt>
      <trkpt lat="44.1982" lon="0.88625">
        <ele>98.6</ele>
        <time>2022-07-21T08:01:55.242Z</time>
      </trkpt>
      <trkpt lat="44.19784" lon="0.88627">
        <ele>94.9</ele>
        <time>2022-07-21T08:02:27.242Z</time>
      </trkpt>
      <trkpt lat="44.19766" lon="0.88631">
        <ele>93.2</ele>
        <time>2022-07-21T08:02:43.242Z</time>
      </trkpt>
      <trkpt lat="44.19752" lon="0.88648">
        <ele>92</ele>
        <time>2022-07-21T08:03:07.242Z</time>
      </trkpt>
      <trkpt lat="44.19754" lon="0.88661">
        <ele>92.3</ele>
        <time>2022-07-21T08:04:03.262Z</time>
      </trkpt>
      <trkpt lat="44.19755" lon="0.88709">
        <ele>92.8</ele>
        <time>2022-07-21T08:04:35.262Z</time>
      </trkpt>
      <trkpt lat="44.19758" lon="0.88736">
        <ele>93.4</ele>
        <time>2022-07-21T08:04:51.262Z</time>
      </trkpt>
      <trkpt lat="44.19757" lon="0.88752">
        <ele>93.3</ele>
        <time>2022-07-21T08:05:03.262Z</time>
      </trkpt>
      <trkpt lat="44.19762" lon="0.88758">
        <ele>93.1</ele>
        <time>2022-07-21T08:05:11.262Z</time>
      </trkpt>
      <trkpt lat="44.19776" lon="0.88769">
        <ele>92.9</ele>
        <time>2022-07-21T08:05:27.262Z</time>
      </trkpt>
      <trkpt lat="44.19783" lon="0.88779">
        <ele>92.3</ele>
        <time>2022-07-21T08:05:35.262Z</time>
      </trkpt>
      <trkpt lat="44.19809" lon="0.88795">
        <ele>91.8</ele>
        <time>2022-07-21T08:05:59.262Z</time>
      </trkpt>
      <trkpt lat="44.19843" lon="0.88809">
        <ele>91.4</ele>
        <time>2022-07-21T08:06:31.262Z</time>
      </trkpt>
      <trkpt lat="44.19861" lon="0.88823">
        <ele>90.5</ele>
        <time>2022-07-21T08:06:47.262Z</time>
      </trkpt>
      <trkpt lat="44.19868" lon="0.88833">
        <ele>89.7</ele>
        <time>2022-07-21T08:06:55.262Z</time>
      </trkpt>
      <trkpt lat="44.19872" lon="0.88846">
        <ele>88.7</ele>
        <time>2022-07-21T08:07:03.262Z</time>
      </trkpt>
      <trkpt lat="44.19872" lon="0.8886">
        <ele>87.3</ele>
        <time>2022-07-21T08:07:11.262Z</time>
      </trkpt>
      <trkpt lat="44.19844" lon="0.88929">
        <ele>81.1</ele>
        <time>2022-07-21T08:07:59.262Z</time>
      </trkpt>
      <trkpt lat="44.19814" lon="0.89022">
        <ele>80.5</ele>
        <time>2022-07-21T08:09:03.262Z</time>
      </trkpt>
      <trkpt lat="44.19808" lon="0.89047">
        <ele>81.4</ele>
        <time>2022-07-21T08:09:19.262Z</time>
      </trkpt>
      <trkpt lat="44.19804" lon="0.89074">
        <ele>82.3</ele>
        <time>2022-07-21T08:09:35.262Z</time>
      </trkpt>
      <trkpt lat="44.19803" lon="0.891">
        <ele>82.8</ele>
        <time>2022-07-21T08:09:51.262Z</time>
      </trkpt>
      <trkpt lat="44.198" lon="0.89123">
        <ele>83.1</ele>
        <time>2022-07-21T08:10:07.262Z</time>
      </trkpt>
      <trkpt lat="44.19798" lon="0.8913">
        <ele>83.1</ele>
        <time>2022-07-21T08:10:39.274Z</time>
      </trkpt>
      <trkpt lat="44.19792" lon="0.89206">
        <ele>85.2</ele>
        <time>2022-07-21T08:11:23.274Z</time>
      </trkpt>
      <trkpt lat="44.19783" lon="0.89261">
        <ele>87.5</ele>
        <time>2022-07-21T08:11:55.274Z</time>
      </trkpt>
      <trkpt lat="44.19774" lon="0.89298">
        <ele>89.5</ele>
        <time>2022-07-21T08:12:33.298Z</time>
      </trkpt>
      <trkpt lat="44.19766" lon="0.89316">
        <ele>90.1</ele>
        <time>2022-07-21T08:12:49.298Z</time>
      </trkpt>
      <trkpt lat="44.19767" lon="0.89333">
        <ele>91.2</ele>
        <time>2022-07-21T08:13:05.298Z</time>
      </trkpt>
      <trkpt lat="44.19781" lon="0.89387">
        <ele>96.4</ele>
        <time>2022-07-21T08:13:53.298Z</time>
      </trkpt>
      <trkpt lat="44.19782" lon="0.89404">
        <ele>97.8</ele>
        <time>2022-07-21T08:14:49.322Z</time>
      </trkpt>
      <trkpt lat="44.19778" lon="0.89449">
        <ele>99.9</ele>
        <time>2022-07-21T08:15:21.322Z</time>
      </trkpt>
      <trkpt lat="44.19777" lon="0.8948">
        <ele>101.3</ele>
        <time>2022-07-21T08:15:37.322Z</time>
      </trkpt>
      <trkpt lat="44.19767" lon="0.89547">
        <ele>103</ele>
        <time>2022-07-21T08:17:02.342Z</time>
      </trkpt>
      <trkpt lat="44.1976" lon="0.89566">
        <ele>103.2</ele>
        <time>2022-07-21T08:17:14.342Z</time>
      </trkpt>
      <trkpt lat="44.19764" lon="0.89579">
        <ele>104.2</ele>
        <time>2022-07-21T08:17:26.342Z</time>
      </trkpt>
      <trkpt lat="44.19773" lon="0.89589">
        <ele>105.3</ele>
        <time>2022-07-21T08:18:59.366Z</time>
      </trkpt>
      <trkpt lat="44.19784" lon="0.896">
        <ele>106.5</ele>
        <time>2022-07-21T08:19:53.390Z</time>
      </trkpt>
      <trkpt lat="44.19806" lon="0.8963">
        <ele>109</ele>
        <time>2022-07-21T08:20:25.390Z</time>
      </trkpt>
      <trkpt lat="44.19831" lon="0.89659">
        <ele>111.7</ele>
        <time>2022-07-21T08:20:57.390Z</time>
      </trkpt>
      <trkpt lat="44.19844" lon="0.89667">
        <ele>113.4</ele>
        <time>2022-07-21T08:21:13.390Z</time>
      </trkpt>
      <trkpt lat="44.19857" lon="0.8968">
        <ele>115.4</ele>
        <time>2022-07-21T08:21:29.390Z</time>
      </trkpt>
      <trkpt lat="44.19861" lon="0.89691">
        <ele>116.1</ele>
        <time>2022-07-21T08:21:37.390Z</time>
      </trkpt>
      <trkpt lat="44.19859" lon="0.89702">
        <ele>116.1</ele>
        <time>2022-07-21T08:21:45.390Z</time>
      </trkpt>
      <trkpt lat="44.19852" lon="0.8972">
        <ele>115.4</ele>
        <time>2022-07-21T08:22:01.390Z</time>
      </trkpt>
      <trkpt lat="44.19849" lon="0.89743">
        <ele>115.3</ele>
        <time>2022-07-21T08:22:17.390Z</time>
      </trkpt>
      <trkpt lat="44.1982" lon="0.89801">
        <ele>111.9</ele>
        <time>2022-07-21T08:24:17.402Z</time>
      </trkpt>
      <trkpt lat="44.19807" lon="0.89832">
        <ele>110.2</ele>
        <time>2022-07-21T08:24:49.402Z</time>
      </trkpt>
      <trkpt lat="44.19798" lon="0.89853">
        <ele>107.9</ele>
      </trkpt>
      <trkpt lat="44.1979" lon="0.89875">
        <ele>105.8</ele>
        <time>2022-07-21T08:25:05.402Z</time>
      </trkpt>
      <trkpt lat="44.19785" lon="0.89899">
        <ele>103.8</ele>
        <time>2022-07-21T08:25:21.402Z</time>
      </trkpt>
      <trkpt lat="44.19785" lon="0.89924">
        <ele>102.6</ele>
        <time>2022-07-21T08:25:37.402Z</time>
      </trkpt>
      <trkpt lat="44.19785" lon="0.89979">
        <ele>100.7</ele>
        <time>2022-07-21T08:26:25.402Z</time>
      </trkpt>
      <trkpt lat="44.19785" lon="0.90022">
        <ele>99.2</ele>
        <time>2022-07-21T08:28:24.406Z</time>
      </trkpt>
      <trkpt lat="44.19785" lon="0.90063">
        <ele>97.7</ele>
        <time>2022-07-21T08:28:56.406Z</time>
      </trkpt>
      <trkpt lat="44.19783" lon="0.90092">
        <ele>96.6</ele>
        <time>2022-07-21T08:29:12.406Z</time>
      </trkpt>
      <trkpt lat="44.19783" lon="0.90129">
        <ele>96.5</ele>
        <time>2022-07-21T08:29:40.406Z</time>
      </trkpt>
      <trkpt lat="44.19773" lon="0.90165">
        <ele>95.2</ele>
        <time>2022-07-21T08:30:24.304Z</time>
      </trkpt>
      <trkpt lat="44.19763" lon="0.90189">
        <ele>94.3</ele>
        <time>2022-07-21T08:31:02.308Z</time>
      </trkpt>
      <trkpt lat="44.19753" lon="0.90208">
        <ele>93.3</ele>
        <time>2022-07-21T08:31:18.308Z</time>
      </trkpt>
      <trkpt lat="44.19705" lon="0.90285">
        <ele>91.3</ele>
        <time>2022-07-21T08:32:22.308Z</time>
      </trkpt>
      <trkpt lat="44.19684" lon="0.90325">
        <ele>91</ele>
        <time>2022-07-21T08:32:54.308Z</time>
      </trkpt>
      <trkpt lat="44.19669" lon="0.9037">
        <ele>90.1</ele>
        <time>2022-07-21T08:33:26.308Z</time>
      </trkpt>
      <trkpt lat="44.19663" lon="0.90396">
        <ele>90</ele>
        <time>2022-07-21T08:33:42.308Z</time>
      </trkpt>
      <trkpt lat="44.19659" lon="0.90412">
        <ele>90</ele>
        <time>2022-07-21T08:33:50.308Z</time>
      </trkpt>
      <trkpt lat="44.19665" lon="0.9041">
        <ele>90</ele>
        <time>2022-07-21T08:33:58.308Z</time>
      </trkpt>
      <trkpt lat="44.19682" lon="0.90409">
        <ele>90.6</ele>
        <time>2022-07-21T08:34:14.308Z</time>
      </trkpt>
      <trkpt lat="44.19717" lon="0.90403">
        <ele>92.1</ele>
        <time>2022-07-21T08:34:46.308Z</time>
      </trkpt>
      <trkpt lat="44.19801" lon="0.90427">
        <ele>93.2</ele>
        <time>2022-07-21T08:35:58.308Z</time>
      </trkpt>
      <trkpt lat="44.19839" lon="0.90435">
        <ele>93.5</ele>
        <time>2022-07-21T08:36:30.308Z</time>
      </trkpt>
      <trkpt lat="44.19867" lon="0.90431">
        <ele>94.6</ele>
        <time>2022-07-21T08:36:54.308Z</time>
      </trkpt>
      <trkpt lat="44.19875" lon="0.90437">
        <ele>94.5</ele>
        <time>2022-07-21T08:37:02.308Z</time>
      </trkpt>
      <trkpt lat="44.19881" lon="0.90449">
        <ele>94.1</ele>
        <time>2022-07-21T08:37:10.308Z</time>
      </trkpt>
      <trkpt lat="44.1989" lon="0.90486">
        <ele>92.4</ele>
        <time>2022-07-21T08:37:34.308Z</time>
      </trkpt>
      <trkpt lat="44.19896" lon="0.90496">
        <ele>92</ele>
        <time>2022-07-21T08:37:42.308Z</time>
      </trkpt>
      <trkpt lat="44.19904" lon="0.90503">
        <ele>92</ele>
        <time>2022-07-21T08:37:50.308Z</time>
      </trkpt>
      <trkpt lat="44.1994" lon="0.90514">
        <ele>93.7</ele>
        <time>2022-07-21T08:38:22.308Z</time>
      </trkpt>
      <trkpt lat="44.19948" lon="0.90522">
        <ele>94.1</ele>
        <time>2022-07-21T08:38:30.308Z</time>
      </trkpt>
      <trkpt lat="44.19956" lon="0.90532">
        <ele>94.3</ele>
        <time>2022-07-21T08:38:38.308Z</time>
      </trkpt>
      <trkpt lat="44.19966" lon="0.90555">
        <ele>94.1</ele>
        <time>2022-07-21T08:38:54.308Z</time>
      </trkpt>
      <trkpt lat="44.20009" lon="0.90608">
        <ele>94.5</ele>
        <time>2022-07-21T08:39:42.308Z</time>
      </trkpt>
      <trkpt lat="44.20013" lon="0.90618">
        <ele>95.4</ele>
        <time>2022-07-21T08:39:50.308Z</time>
      </trkpt>
      <trkpt lat="44.2005" lon="0.90673">
        <ele>97.9</ele>
        <time>2022-07-21T08:40:38.308Z</time>
      </trkpt>
      <trkpt lat="44.20062" lon="0.90696">
        <ele>98.7</ele>
        <time>2022-07-21T08:40:54.308Z</time>
      </trkpt>
      <trkpt lat="44.2008" lon="0.90744">
        <ele>96.9</ele>
        <time>2022-07-21T08:41:26.308Z</time>
      </trkpt>
      <trkpt lat="44.20092" lon="0.90761">
        <ele>96.6</ele>
        <time>2022-07-21T08:41:42.308Z</time>
      </trkpt>
      <trkpt lat="44.20101" lon="0.90763">
        <ele>96.7</ele>
        <time>2022-07-21T08:41:50.308Z</time>
      </trkpt>
      <trkpt lat="44.20134" lon="0.90744">
        <ele>97.1</ele>
        <time>2022-07-21T08:42:22.308Z</time>
      </trkpt>
      <trkpt lat="44.20151" lon="0.90738">
        <ele>98.1</ele>
        <time>2022-07-21T08:42:38.308Z</time>
      </trkpt>
      <trkpt lat="44.20168" lon="0.90744">
        <ele>97.9</ele>
        <time>2022-07-21T08:42:54.308Z</time>
      </trkpt>
      <trkpt lat="44.20183" lon="0.90754">
        <ele>98.5</ele>
        <time>2022-07-21T08:43:10.308Z</time>
      </trkpt>
      <trkpt lat="44.20236" lon="0.90802">
        <ele>100.5</ele>
        <time>2022-07-21T08:44:14.308Z</time>
      </trkpt>
      <trkpt lat="44.20285" lon="0.90826">
        <ele>101.4</ele>
        <time>2022-07-21T08:45:02.308Z</time>
      </trkpt>
      <trkpt lat="44.20305" lon="0.9085">
        <ele>100.8</ele>
        <time>2022-07-21T08:45:26.308Z</time>
      </trkpt>
      <trkpt lat="44.20323" lon="0.90885">
        <ele>99.6</ele>
        <time>2022-07-21T08:49:47.356Z</time>
      </trkpt>
      <trkpt lat="44.20365" lon="0.90902">
        <ele>101.3</ele>
        <time>2022-07-21T08:50:25.356Z</time>
      </trkpt>
      <trkpt lat="44.20385" lon="0.90918">
        <ele>101.7</ele>
        <time>2022-07-21T08:51:16.375Z</time>
      </trkpt>
      <trkpt lat="44.204" lon="0.90925">
        <ele>102.7</ele>
        <time>2022-07-21T08:51:32.375Z</time>
      </trkpt>
      <trkpt lat="44.20414" lon="0.90927">
        <ele>103.6</ele>
        <time>2022-07-21T08:51:48.375Z</time>
      </trkpt>
      <trkpt lat="44.20431" lon="0.90925">
        <ele>105.6</ele>
        <time>2022-07-21T08:52:04.375Z</time>
      </trkpt>
      <trkpt lat="44.20457" lon="0.90939">
        <ele>108.1</ele>
        <time>2022-07-21T08:52:28.375Z</time>
      </trkpt>
      <trkpt lat="44.20495" lon="0.90973">
        <ele>109.7</ele>
        <time>2022-07-21T08:53:08.375Z</time>
      </trkpt>
      <trkpt lat="44.2051" lon="0.90984">
        <ele>109.7</ele>
        <time>2022-07-21T08:53:24.375Z</time>
      </trkpt>
      <trkpt lat="44.20528" lon="0.90993">
        <ele>109.6</ele>
        <time>2022-07-21T08:53:40.375Z</time>
      </trkpt>
      <trkpt lat="44.20551" lon="0.90997">
        <ele>110.1</ele>
        <time>2022-07-21T08:54:04.375Z</time>
      </trkpt>
      <trkpt lat="44.20557" lon="0.90992">
        <ele>110.8</ele>
        <time>2022-07-21T08:54:18.391Z</time>
      </trkpt>
      <trkpt lat="44.20548" lon="0.91081">
        <ele>108</ele>
        <time>2022-07-21T08:54:50.391Z</time>
      </trkpt>
      <trkpt lat="44.20588" lon="0.91154">
        <ele>108.1</ele>
        <time>2022-07-21T08:55:06.391Z</time>
      </trkpt>
      <trkpt lat="44.20631" lon="0.91249">
        <ele>108</ele>
        <time>2022-07-21T08:55:22.391Z</time>
      </trkpt>
      <trkpt lat="44.20719" lon="0.91371">
        <ele>108.5</ele>
      </trkpt>
      <trkpt lat="44.20865" lon="0.91386">
        <ele>111</ele>
        <time>2022-07-21T08:56:02.391Z</time>
      </trkpt>
      <trkpt lat="44.20933" lon="0.91429">
        <ele>110.7</ele>
        <time>2022-07-21T08:56:18.391Z</time>
      </trkpt>
      <trkpt lat="44.21025" lon="0.91534">
        <ele>112.1</ele>
        <time>2022-07-21T08:56:34.391Z</time>
      </trkpt>
      <trkpt lat="44.21054" lon="0.91532">
        <ele>110.7</ele>
      </trkpt>
      <trkpt lat="44.2112" lon="0.91369">
        <ele>123.8</ele>
        <time>2022-07-21T08:56:42.391Z</time>
      </trkpt>
      <trkpt lat="44.21142" lon="0.91277">
        <ele>136.5</ele>
        <time>2022-07-21T08:56:58.391Z</time>
      </trkpt>
      <trkpt lat="44.21236" lon="0.91163">
        <ele>145.2</ele>
        <time>2022-07-21T08:57:14.391Z</time>
      </trkpt>
      <trkpt lat="44.2116" lon="0.91124">
        <ele>161.5</ele>
      </trkpt>
      <trkpt lat="44.21085" lon="0.91148">
        <ele>158.6</ele>
      </trkpt>
      <trkpt lat="44.2105" lon="0.91178">
        <ele>150.6</ele>
      </trkpt>
      <trkpt lat="44.21016" lon="0.91169">
        <ele>146.9</ele>
      </trkpt>
      <trkpt lat="44.21011" lon="0.91109">
        <ele>156.2</ele>
      </trkpt>
      <trkpt lat="44.20983" lon="0.91045">
        <ele>162</ele>
      </trkpt>
      <trkpt lat="44.20937" lon="0.91036">
        <ele>159.7</ele>
      </trkpt>
      <trkpt lat="44.20922" lon="0.90998">
        <ele>164.4</ele>
      </trkpt>
      <trkpt lat="44.20934" lon="0.90927">
        <ele>169.7</ele>
      </trkpt>
      <trkpt lat="44.20937" lon="0.90878">
        <ele>171.2</ele>
      </trkpt>
      <trkpt lat="44.20864" lon="0.908">
        <ele>166.6</ele>
        <time>2022-07-21T09:12:19.483Z</time>
      </trkpt>
      <trkpt lat="44.20961" lon="0.90626">
        <ele>172.2</ele>
        <time>2022-07-21T09:15:35.487Z</time>
      </trkpt>
      <trkpt lat="44.21014" lon="0.9051">
        <ele>168.2</ele>
        <time>2022-07-21T09:16:55.487Z</time>
      </trkpt>
      <trkpt lat="44.21032" lon="0.90464">
        <ele>165.6</ele>
        <time>2022-07-21T09:17:27.487Z</time>
      </trkpt>
      <trkpt lat="44.21047" lon="0.90417">
        <ele>163.6</ele>
        <time>2022-07-21T09:17:59.487Z</time>
      </trkpt>
      <trkpt lat="44.21047" lon="0.90405">
        <ele>163.3</ele>
        <time>2022-07-21T09:18:07.487Z</time>
      </trkpt>
      <trkpt lat="44.21042" lon="0.90383">
        <ele>163</ele>
        <time>2022-07-21T09:18:23.487Z</time>
      </trkpt>
      <trkpt lat="44.21043" lon="0.90368">
        <ele>162.4</ele>
        <time>2022-07-21T09:18:47.503Z</time>
      </trkpt>
      <trkpt lat="44.21101" lon="0.90317">
        <ele>155.2</ele>
        <time>2022-07-21T09:19:47.503Z</time>
      </trkpt>
      <trkpt lat="44.21114" lon="0.90297">
        <ele>152.3</ele>
        <time>2022-07-21T09:20:03.503Z</time>
      </trkpt>
      <trkpt lat="44.21123" lon="0.90276">
        <ele>149.3</ele>
        <time>2022-07-21T09:20:19.503Z</time>
      </trkpt>
      <trkpt lat="44.21131" lon="0.90254">
        <ele>146.2</ele>
        <time>2022-07-21T09:20:35.503Z</time>
      </trkpt>
      <trkpt lat="44.21141" lon="0.90213">
        <ele>140.5</ele>
        <time>2022-07-21T09:21:07.503Z</time>
      </trkpt>
      <trkpt lat="44.2114" lon="0.90164">
        <ele>135</ele>
        <time>2022-07-21T09:21:39.503Z</time>
      </trkpt>
      <trkpt lat="44.21128" lon="0.90086">
        <ele>128.5</ele>
        <time>2022-07-21T09:22:27.503Z</time>
      </trkpt>
      <trkpt lat="44.21126" lon="0.90033">
        <ele>125.1</ele>
        <time>2022-07-21T09:22:59.503Z</time>
      </trkpt>
      <trkpt lat="44.21128" lon="0.90011">
        <ele>123.6</ele>
        <time>2022-07-21T09:23:15.503Z</time>
      </trkpt>
      <trkpt lat="44.21138" lon="0.89973">
        <ele>120.6</ele>
        <time>2022-07-21T09:23:39.503Z</time>
      </trkpt>
      <trkpt lat="44.2114" lon="0.89945">
        <ele>118.7</ele>
        <time>2022-07-21T09:23:55.503Z</time>
      </trkpt>
      <trkpt lat="44.21135" lon="0.89936">
        <ele>118.6</ele>
        <time>2022-07-21T09:24:03.503Z</time>
      </trkpt>
      <trkpt lat="44.2113" lon="0.89935">
        <ele>119</ele>
        <time>2022-07-21T09:24:07.503Z</time>
      </trkpt>
      <trkpt lat="44.21123" lon="0.89936">
        <ele>119.7</ele>
        <time>2022-07-21T09:24:15.503Z</time>
      </trkpt>
      <trkpt lat="44.2111" lon="0.89962">
        <ele>122.1</ele>
        <time>2022-07-21T09:24:39.503Z</time>
      </trkpt>
      <trkpt lat="44.21102" lon="0.89986">
        <ele>123.6</ele>
        <time>2022-07-21T09:24:55.503Z</time>
      </trkpt>
      <trkpt lat="44.21092" lon="0.90008">
        <ele>125.2</ele>
        <time>2022-07-21T09:25:11.503Z</time>
      </trkpt>
      <trkpt lat="44.21085" lon="0.90016">
        <ele>126.1</ele>
        <time>2022-07-21T09:25:19.503Z</time>
      </trkpt>
      <trkpt lat="44.21074" lon="0.9002">
        <ele>129.7</ele>
        <time>2022-07-21T09:25:27.503Z</time>
      </trkpt>
      <trkpt lat="44.21064" lon="0.90016">
        <ele>133</ele>
        <time>2022-07-21T09:25:35.503Z</time>
      </trkpt>
      <trkpt lat="44.21057" lon="0.90003">
        <ele>134.7</ele>
        <time>2022-07-21T09:25:43.503Z</time>
      </trkpt>
      <trkpt lat="44.21049" lon="0.89896">
        <ele>128.9</ele>
        <time>2022-07-21T09:26:47.503Z</time>
      </trkpt>
      <trkpt lat="44.21046" lon="0.8987">
        <ele>125.6</ele>
        <time>2022-07-21T09:27:03.503Z</time>
      </trkpt>
      <trkpt lat="44.21038" lon="0.89846">
        <ele>123</ele>
        <time>2022-07-21T09:27:19.503Z</time>
      </trkpt>
      <trkpt lat="44.21017" lon="0.89803">
        <ele>116.8</ele>
        <time>2022-07-21T09:27:51.503Z</time>
      </trkpt>
      <trkpt lat="44.20967" lon="0.89744">
        <ele>104.9</ele>
        <time>2022-07-21T09:28:47.503Z</time>
      </trkpt>
      <trkpt lat="44.2096" lon="0.89739">
        <ele>104.2</ele>
        <time>2022-07-21T09:28:55.503Z</time>
      </trkpt>
      <trkpt lat="44.20953" lon="0.89728">
        <ele>103</ele>
        <time>2022-07-21T09:29:03.503Z</time>
      </trkpt>
      <trkpt lat="44.20944" lon="0.89723">
        <ele>102.5</ele>
        <time>2022-07-21T09:29:11.503Z</time>
      </trkpt>
      <trkpt lat="44.20903" lon="0.89663">
        <ele>97.4</ele>
        <time>2022-07-21T09:29:59.503Z</time>
      </trkpt>
      <trkpt lat="44.20898" lon="0.8965">
        <ele>96.4</ele>
        <time>2022-07-21T09:30:07.503Z</time>
      </trkpt>
      <trkpt lat="44.20894" lon="0.89625">
        <ele>94</ele>
        <time>2022-07-21T09:30:23.503Z</time>
      </trkpt>
      <trkpt lat="44.20888" lon="0.896">
        <ele>91.5</ele>
        <time>2022-07-21T09:30:39.503Z</time>
      </trkpt>
      <trkpt lat="44.20887" lon="0.89582">
        <ele>89.7</ele>
        <time>2022-07-21T09:30:55.503Z</time>
      </trkpt>
      <trkpt lat="44.2087" lon="0.89544">
        <ele>90.4</ele>
        <time>2022-07-21T09:31:19.503Z</time>
      </trkpt>
      <trkpt lat="44.20863" lon="0.89534">
        <ele>90.7</ele>
        <time>2022-07-21T09:31:27.503Z</time>
      </trkpt>
      <trkpt lat="44.20857" lon="0.89522">
        <ele>91</ele>
        <time>2022-07-21T09:31:35.503Z</time>
      </trkpt>
      <trkpt lat="44.20854" lon="0.89509">
        <ele>91.2</ele>
        <time>2022-07-21T09:31:43.503Z</time>
      </trkpt>
      <trkpt lat="44.20855" lon="0.89495">
        <ele>91.2</ele>
        <time>2022-07-21T09:31:51.503Z</time>
      </trkpt>
      <trkpt lat="44.20858" lon="0.89474">
        <ele>91.2</ele>
        <time>2022-07-21T09:32:24.507Z</time>
      </trkpt>
      <trkpt lat="44.20862" lon="0.89444">
        <ele>91.2</ele>
        <time>2022-07-21T09:32:40.507Z</time>
      </trkpt>
      <trkpt lat="44.20864" lon="0.89415">
        <ele>91.4</ele>
        <time>2022-07-21T09:32:56.507Z</time>
      </trkpt>
      <trkpt lat="44.20867" lon="0.89401">
        <ele>92.2</ele>
        <time>2022-07-21T09:33:12.507Z</time>
      </trkpt>
      <trkpt lat="44.20873" lon="0.89384">
        <ele>93.2</ele>
        <time>2022-07-21T09:33:43.523Z</time>
      </trkpt>
      <trkpt lat="44.20882" lon="0.89355">
        <ele>95.2</ele>
        <time>2022-07-21T09:34:23.410Z</time>
      </trkpt>
      <trkpt lat="44.20906" lon="0.89298">
        <ele>100.2</ele>
        <time>2022-07-21T09:34:47.410Z</time>
      </trkpt>
      <trkpt lat="44.20868" lon="0.89262">
        <ele>101.9</ele>
        <time>2022-07-21T09:35:03.410Z</time>
      </trkpt>
      <trkpt lat="44.20855" lon="0.89248">
        <ele>102.6</ele>
      </trkpt>
      <trkpt lat="44.20829" lon="0.89221">
        <ele>102.7</ele>
      </trkpt>
      <trkpt lat="44.20802" lon="0.89215">
        <ele>101.4</ele>
      </trkpt>
      <trkpt lat="44.2079" lon="0.89304">
        <ele>94.5</ele>
      </trkpt>
      <trkpt lat="44.20778" lon="0.89332">
        <ele>91.8</ele>
      </trkpt>
      <trkpt lat="44.20787" lon="0.89382">
        <ele>90.8</ele>
        <time>2022-07-21T09:35:11.410Z</time>
      </trkpt>
      <trkpt lat="44.20773" lon="0.89368">
        <ele>90.4</ele>
        <time>2022-07-21T09:35:19.410Z</time>
      </trkpt>
      <trkpt lat="44.20764" lon="0.89347">
        <ele>90.5</ele>
        <time>2022-07-21T09:35:27.410Z</time>
      </trkpt>
      <trkpt lat="44.20766" lon="0.89316">
        <ele>92</ele>
        <time>2022-07-21T09:35:51.410Z</time>
      </trkpt>
      <trkpt lat="44.20774" lon="0.89293">
        <ele>94.1</ele>
      </trkpt>
      <trkpt lat="44.20793" lon="0.89289">
        <ele>95.8</ele>
        <time>2022-07-21T09:36:07.410Z</time>
      </trkpt>
    </trkseg>
  </trk>
</gpx>